Seaspan Eagle — CFN6642 — position and weather

sailwx.info

Track history (hours):
 
Tides and Currents Weather Stations Pressure Air Temp Water Temp Dewpoint Dewpoint Depression Visibility Wind Speed Wind Dir Waves Ship Positions

Seaspan Eagle

Last reported at 2018-May-24 03:33 UTC. Time now 2018-May-24 07:53 UTC.
Position N 49°01' W 123°09'.

Length 28 m; draft 5.4 m.

Type: Tug. MMSI: 316020871.

Date/timePositionNaut miles runAvg speedWind from/ knotsBaromVisibWave heightAir tempDewpointWater temp
2018-May-24 03:33N 49°01' W 123°09'0 0.0
2018-May-24 02:15N 49°01' W 123°09'0 0.0
2018-May-23 23:48N 49°01' W 123°09'0 0.0
2018-May-23 21:39N 49°01' W 123°09'0 0.0
2018-May-23 21:21N 49°01' W 123°09'0 0.0
2018-May-23 20:57N 49°01' W 123°09'0 0.0
2018-May-23 17:09N 49°01' W 123°09'0 0.0
2018-May-23 16:51N 49°01' W 123°09'0 0.0
2018-May-23 16:27N 49°01' W 123°09'0 0.0
2018-May-23 15:51N 49°01' W 123°09'0 0.0
2018-May-23 15:27N 49°01' W 123°09'0 0.0
2018-May-23 09:21N 49°01' W 123°09'0 0.0
2018-May-23 08:33N 49°01' W 123°09'0 0.0
2018-May-23 08:21N 49°01' W 123°09'0 0.0
2018-May-23 07:21N 49°01' W 123°09'0 0.0
2018-May-23 07:00N 49°01' W 123°09'0 0.0
2018-May-23 06:30N 49°01' W 123°09'0 0.0
2018-May-23 04:00N 49°01' W 123°09'0 0.0
2018-May-23 01:51N 49°01' W 123°09'0 0.0
2018-May-23 01:24N 49°01' W 123°09'0 0.0
2018-May-23 00:57N 49°01' W 123°09'0 0.0
2018-May-23 00:28N 49°01' W 123°09'1 1.2
2018-May-22 23:20N 49°01' W 123°10'0 0.4
2018-May-22 22:19N 49°01' W 123°10'1 0.8
2018-May-22 20:49N 49°02' W 123°09'1 1.4
2018-May-22 20:25N 49°01' W 123°09'1 2.0
2018-May-22 20:00N 49°00' W 123°09'1 0.1
2018-May-22 06:57N 49°01' W 123°09'1 1.5
2018-May-22 06:30N 49°01' W 123°09'0 0.0
2018-May-22 06:01N 49°01' W 123°09'0 0.1
2018-May-22 05:30N 49°01' W 123°09'2 3.1
2018-May-22 05:00N 49°00' W 123°11'2 1.0
2018-May-22 03:13N 49°01' W 123°09'0 1.4
2018-May-22 02:58N 49°01' W 123°09'0 0.0
2018-May-22 02:25N 49°01' W 123°09'0 0.0
2018-May-22 01:58N 49°01' W 123°09'0 0.0
2018-May-22 01:28N 49°01' W 123°09'0 0.0
2018-May-22 00:46N 49°01' W 123°09'0 0.0
2018-May-22 00:10N 49°01' W 123°09'0 0.0
2018-May-21 23:52N 49°01' W 123°09'0 0.0
2018-May-21 23:28N 49°01' W 123°09'0 0.0
2018-May-21 22:52N 49°01' W 123°09'0 0.3
2018-May-21 21:29N 49°01' W 123°09'2 4.3
2018-May-21 20:58N 48°59' W 123°10'3 4.5
2018-May-21 20:23N 49°01' W 123°09'0 0.0
2018-May-21 16:41N 49°01' W 123°09'0 0.0
2018-May-21 15:23N 49°01' W 123°09'0 0.0
2018-May-21 14:55N 49°01' W 123°09'0 0.0
2018-May-21 13:14N 49°01' W 123°09'0 0.1
2018-May-21 12:54N 49°02' W 123°09'1 2.6
2018-May-21 12:27N 49°01' W 123°10'0 0.1
2018-May-21 11:57N 49°01' W 123°10'1 1.6
2018-May-21 11:30N 49°01' W 123°11'1 1.0
2018-May-21 10:48N 49°01' W 123°10'0 0.0
2018-May-21 10:06N 49°01' W 123°10'0 0.0
2018-May-21 09:57N 49°01' W 123°10'1 1.6
2018-May-21 09:13N 49°01' W 123°09'0 0.0
2018-May-21 08:52N 49°01' W 123°09'0 0.0
2018-May-21 08:07N 49°01' W 123°09'0 0.0
2018-May-21 07:52N 49°01' W 123°09'0 0.0
2018-May-21 07:28N 49°01' W 123°09'0 0.0
2018-May-20 23:56N 49°01' W 123°09'1 0.8
2018-May-20 23:13N 49°01' W 123°09'1 0.1
2018-May-20 15:16N 49°02' W 123°09'1 2.7
2018-May-20 14:56N 49°01' W 123°09'1 1.3
2018-May-20 14:23N 49°01' W 123°09'0 0.1
2018-May-20 11:02N 49°02' W 123°09'0 8.9
2018-May-20 10:59N 49°01' W 123°09'0 0.1
2018-May-20 10:26N 49°01' W 123°09'0 0.0
2018-May-18 22:04N 49°01' W 123°09'0 6.0
2018-May-18 21:59N 49°01' W 123°09'2 1.4
2018-May-18 20:49N 49°01' W 123°11'1 1.0
2018-May-18 20:17N 49°00' W 123°11'2 0.3
2018-May-18 13:35N 49°01' W 123°09'1 4.2
2018-May-18 13:26N 49°01' W 123°09'0 0.4
2018-May-18 12:45N 49°01' W 123°09'1 3.2
2018-May-18 12:30N 49°00' W 123°10'2 0.1
2018-May-17 21:34N 49°01' W 123°09'1 6.5
2018-May-17 21:28N 49°01' W 123°09'0 0.0
2018-May-17 20:58N 49°01' W 123°09'0 0.1
2018-May-17 20:22N 49°01' W 123°09'1 2.4
2018-May-17 20:00N 49°00' W 123°10'1 0.8
2018-May-17 19:16N 49°01' W 123°09'0 0.4
2018-May-17 18:32N 49°01' W 123°09'0 4.3
2018-May-17 18:30N 49°01' W 123°09'0 0.1
2018-May-17 13:23N 49°01' W 123°09'2 1.2
2018-May-17 11:58N 49°00' W 123°11'1 0.4
2018-May-17 10:32N 49°01' W 123°10'0 1.0
2018-May-17 10:30N 49°01' W 123°10'1 0.9
2018-May-17 09:46N 49°01' W 123°09'1 2.1
2018-May-17 09:30N 49°00' W 123°09'1 1.3
2018-May-17 08:57N 49°01' W 123°09'0 0.9
2018-May-17 08:30N 49°01' W 123°09'0 0.3
2018-May-17 07:59N 49°01' W 123°09'1 0.9
2018-May-17 07:21N 49°01' W 123°09'0 0.0
2018-May-16 16:52N 49°02' W 123°09'1 1.5
2018-May-16 16:23N 49°01' W 123°09'0 0.0
2018-May-16 15:59N 49°01' W 123°09'0 0.0
2018-May-16 15:29N 49°01' W 123°09'1 1.4
2018-May-16 15:00N 49°00' W 123°10'1 1.2
2018-May-16 14:26N 49°01' W 123°09'0 0.6
2018-May-16 13:50N 49°01' W 123°09'1 2.2
2018-May-16 13:30N 49°00' W 123°09'1 1.8
2018-May-16 12:59N 48°60' W 123°10'2 1.0
2018-May-16 11:03N 49°01' W 123°09'1 7.1
2018-May-16 10:56N 49°01' W 123°09'0 0.7
2018-May-16 10:15N 49°01' W 123°10'0 0.6
2018-May-16 10:00N 49°01' W 123°10'1 2.1
2018-May-16 09:29N 49°00' W 123°12'2 4.3
2018-May-16 08:58N 49°01' W 123°09'0 0.0
2018-May-16 08:28N 49°01' W 123°09'1 2.3
2018-May-16 07:58N 49°01' W 123°10'0 0.3
2018-May-16 07:26N 49°01' W 123°10'1 1.7
2018-May-16 06:46N 49°01' W 123°09'0 0.0
2018-May-16 05:40N 49°01' W 123°09'0 0.0
2018-May-16 05:28N 49°01' W 123°09'0 0.0
2018-May-16 04:46N 49°01' W 123°09'0 0.0
2018-May-16 04:22N 49°01' W 123°09'0 0.0
2018-May-16 03:58N 49°01' W 123°09'0 0.0
2018-May-16 03:28N 49°01' W 123°09'0 0.0
2018-May-16 02:46N 49°01' W 123°09'0 0.0
2018-May-16 02:28N 49°01' W 123°09'0 0.0
2018-May-16 01:58N 49°01' W 123°09'0 0.0
2018-May-16 01:16N 49°01' W 123°09'0 0.0
2018-May-16 00:58N 49°01' W 123°09'0 0.0
2018-May-16 00:28N 49°01' W 123°09'0 0.0
2018-May-15 21:58N 49°01' W 123°09'0 0.0
2018-May-15 18:19N 49°01' W 123°09'0 0.0
2018-May-15 17:52N 49°01' W 123°09'0 0.0
2018-May-15 17:22N 49°01' W 123°09'0 0.0
2018-May-15 16:55N 49°01' W 123°09'0 0.0
2018-May-15 16:28N 49°01' W 123°09'0 0.0
2018-May-15 15:55N 49°01' W 123°09'0 0.0
2018-May-15 15:28N 49°01' W 123°09'0 0.0
2018-May-15 14:58N 49°01' W 123°09'0 0.0
2018-May-15 13:16N 49°01' W 123°09'0 0.0
2018-May-15 12:52N 49°01' W 123°09'0 0.0
2018-May-15 12:22N 49°01' W 123°09'0 0.0
2018-May-15 11:58N 49°01' W 123°09'0 0.0
2018-May-15 11:22N 49°01' W 123°09'0 0.0
2018-May-15 10:58N 49°01' W 123°09'0 0.0
2018-May-15 10:25N 49°01' W 123°09'0 0.1
2018-May-15 09:47N 49°02' W 123°09'1 4.3
2018-May-15 09:30N 49°00' W 123°10'1 1.5
2018-May-15 08:59N 49°01' W 123°09'0 0.8
2018-May-15 08:28N 49°01' W 123°09'0 0.0
2018-May-15 07:49N 49°01' W 123°09'0 0.0
2018-May-15 07:22N 49°01' W 123°09'0 0.0
2018-May-15 06:43N 49°01' W 123°09'0 0.0
2018-May-15 06:25N 49°01' W 123°09'0 0.0
2018-May-15 02:46N 49°01' W 123°09'0 0.0
2018-May-15 02:28N 49°01' W 123°09'0 0.0
2018-May-15 01:52N 49°01' W 123°09'0 0.0
2018-May-15 00:40N 49°01' W 123°09'0 0.0
2018-May-15 00:10N 49°01' W 123°09'0 0.0
2018-May-14 23:52N 49°01' W 123°09'0 0.0
2018-May-14 22:34N 49°01' W 123°09'0 0.0
2018-May-14 22:28N 49°01' W 123°09'0 0.0
2018-May-14 21:58N 49°01' W 123°09'0 0.0
2018-May-14 21:28N 49°01' W 123°09'0 0.0
2018-May-14 20:55N 49°01' W 123°09'0 0.0
2018-May-14 20:25N 49°01' W 123°09'0 0.0
2018-May-14 19:55N 49°01' W 123°09'0 0.0
2018-May-14 19:19N 49°01' W 123°09'0 0.0
2018-May-14 18:55N 49°01' W 123°09'0 0.0
2018-May-14 18:10N 49°01' W 123°09'0 0.0
2018-May-14 17:55N 49°01' W 123°09'0 0.0
2018-May-14 17:28N 49°01' W 123°09'0 0.0
2018-May-14 16:04N 49°01' W 123°09'0 0.0
2018-May-14 15:01N 49°01' W 123°09'0 0.0
2018-May-14 13:55N 49°01' W 123°09'0 0.0
2018-May-14 13:25N 49°01' W 123°09'0 0.0
2018-May-14 12:55N 49°01' W 123°09'0 0.5
2018-May-14 12:29N 49°01' W 123°09'0 0.9
2018-May-14 12:00N 49°01' W 123°09'1 0.5
2018-May-14 09:27N 49°01' W 123°11'1 3.4
2018-May-14 09:01N 49°01' W 123°09'0 0.5
2018-May-14 08:28N 49°01' W 123°09'1 1.7
2018-May-14 07:52N 49°01' W 123°10'1 2.9
2018-May-14 07:28N 49°01' W 123°09'0 0.0
2018-May-14 06:58N 49°01' W 123°09'0 0.0
2018-May-14 06:25N 49°01' W 123°09'0 0.0
2018-May-14 05:58N 49°01' W 123°09'0 0.0
2018-May-14 05:25N 49°01' W 123°09'0 0.0
2018-May-14 04:58N 49°01' W 123°09'0 0.0
2018-May-14 04:25N 49°01' W 123°09'0 0.0
2018-May-14 03:55N 49°01' W 123°09'  
Track history (hours):
 
Tides and Currents Weather Stations Pressure Air Temp Water Temp Dewpoint Dewpoint Depression Visibility Wind Speed Wind Dir Waves Ship Positions

Seaspan Eagle

Last reported at 2018-May-24 03:33 UTC. Time now 2018-May-24 07:53 UTC.
Position N 49°01' W 123°09'.

Length 28 m; draft 5.4 m.

Type: Tug. MMSI: 316020871.

Date/timePositionNaut miles runAvg speedWind from/ knotsBaromVisibWave heightAir tempDewpointWater temp
2018-May-24 03:33N 49°01' W 123°09'0 0.0
2018-May-24 02:15N 49°01' W 123°09'0 0.0
2018-May-23 23:48N 49°01' W 123°09'0 0.0
2018-May-23 21:39N 49°01' W 123°09'0 0.0
2018-May-23 21:21N 49°01' W 123°09'0 0.0
2018-May-23 20:57N 49°01' W 123°09'0 0.0
2018-May-23 17:09N 49°01' W 123°09'0 0.0
2018-May-23 16:51N 49°01' W 123°09'0 0.0
2018-May-23 16:27N 49°01' W 123°09'0 0.0
2018-May-23 15:51N 49°01' W 123°09'0 0.0
2018-May-23 15:27N 49°01' W 123°09'0 0.0
2018-May-23 09:21N 49°01' W 123°09'0 0.0
2018-May-23 08:33N 49°01' W 123°09'0 0.0
2018-May-23 08:21N 49°01' W 123°09'0 0.0
2018-May-23 07:21N 49°01' W 123°09'0 0.0
2018-May-23 07:00N 49°01' W 123°09'0 0.0
2018-May-23 06:30N 49°01' W 123°09'0 0.0
2018-May-23 04:00N 49°01' W 123°09'0 0.0
2018-May-23 01:51N 49°01' W 123°09'0 0.0
2018-May-23 01:24N 49°01' W 123°09'0 0.0
2018-May-23 00:57N 49°01' W 123°09'0 0.0
2018-May-23 00:28N 49°01' W 123°09'1 1.2
2018-May-22 23:20N 49°01' W 123°10'0 0.4
2018-May-22 22:19N 49°01' W 123°10'1 0.8
2018-May-22 20:49N 49°02' W 123°09'1 1.4
2018-May-22 20:25N 49°01' W 123°09'1 2.0
2018-May-22 20:00N 49°00' W 123°09'1 0.1
2018-May-22 06:57N 49°01' W 123°09'1 1.5
2018-May-22 06:30N 49°01' W 123°09'0 0.0
2018-May-22 06:01N 49°01' W 123°09'0 0.1
2018-May-22 05:30N 49°01' W 123°09'2 3.1
2018-May-22 05:00N 49°00' W 123°11'2 1.0
2018-May-22 03:13N 49°01' W 123°09'0 1.4
2018-May-22 02:58N 49°01' W 123°09'0 0.0
2018-May-22 02:25N 49°01' W 123°09'0 0.0
2018-May-22 01:58N 49°01' W 123°09'0 0.0
2018-May-22 01:28N 49°01' W 123°09'0 0.0
2018-May-22 00:46N 49°01' W 123°09'0 0.0
2018-May-22 00:10N 49°01' W 123°09'0 0.0
2018-May-21 23:52N 49°01' W 123°09'0 0.0
2018-May-21 23:28N 49°01' W 123°09'0 0.0
2018-May-21 22:52N 49°01' W 123°09'0 0.3
2018-May-21 21:29N 49°01' W 123°09'2 4.3
2018-May-21 20:58N 48°59' W 123°10'3 4.5
2018-May-21 20:23N 49°01' W 123°09'0 0.0
2018-May-21 16:41N 49°01' W 123°09'0 0.0
2018-May-21 15:23N 49°01' W 123°09'0 0.0
2018-May-21 14:55N 49°01' W 123°09'0 0.0
2018-May-21 13:14N 49°01' W 123°09'0 0.1
2018-May-21 12:54N 49°02' W 123°09'1 2.6
2018-May-21 12:27N 49°01' W 123°10'0 0.1
2018-May-21 11:57N 49°01' W 123°10'1 1.6
2018-May-21 11:30N 49°01' W 123°11'1 1.0
2018-May-21 10:48N 49°01' W 123°10'0 0.0
2018-May-21 10:06N 49°01' W 123°10'0 0.0
2018-May-21 09:57N 49°01' W 123°10'1 1.6
2018-May-21 09:13N 49°01' W 123°09'0 0.0
2018-May-21 08:52N 49°01' W 123°09'0 0.0
2018-May-21 08:07N 49°01' W 123°09'0 0.0
2018-May-21 07:52N 49°01' W 123°09'0 0.0
2018-May-21 07:28N 49°01' W 123°09'0 0.0
2018-May-20 23:56N 49°01' W 123°09'1 0.8
2018-May-20 23:13N 49°01' W 123°09'1 0.1
2018-May-20 15:16N 49°02' W 123°09'1 2.7
2018-May-20 14:56N 49°01' W 123°09'1 1.3
2018-May-20 14:23N 49°01' W 123°09'0 0.1
2018-May-20 11:02N 49°02' W 123°09'0 8.9
2018-May-20 10:59N 49°01' W 123°09'0 0.1
2018-May-20 10:26N 49°01' W 123°09'0 0.0
2018-May-18 22:04N 49°01' W 123°09'0 6.0
2018-May-18 21:59N 49°01' W 123°09'2 1.4
2018-May-18 20:49N 49°01' W 123°11'1 1.0
2018-May-18 20:17N 49°00' W 123°11'2 0.3
2018-May-18 13:35N 49°01' W 123°09'1 4.2
2018-May-18 13:26N 49°01' W 123°09'0 0.4
2018-May-18 12:45N 49°01' W 123°09'1 3.2
2018-May-18 12:30N 49°00' W 123°10'2 0.1
2018-May-17 21:34N 49°01' W 123°09'1 6.5
2018-May-17 21:28N 49°01' W 123°09'0 0.0
2018-May-17 20:58N 49°01' W 123°09'0 0.1
2018-May-17 20:22N 49°01' W 123°09'1 2.4
2018-May-17 20:00N 49°00' W 123°10'1 0.8
2018-May-17 19:16N 49°01' W 123°09'0 0.4
2018-May-17 18:32N 49°01' W 123°09'0 4.3
2018-May-17 18:30N 49°01' W 123°09'0 0.1
2018-May-17 13:23N 49°01' W 123°09'2 1.2
2018-May-17 11:58N 49°00' W 123°11'1 0.4
2018-May-17 10:32N 49°01' W 123°10'0 1.0
2018-May-17 10:30N 49°01' W 123°10'1 0.9
2018-May-17 09:46N 49°01' W 123°09'1 2.1
2018-May-17 09:30N 49°00' W 123°09'1 1.3
2018-May-17 08:57N 49°01' W 123°09'0 0.9
2018-May-17 08:30N 49°01' W 123°09'0 0.3
2018-May-17 07:59N 49°01' W 123°09'1 0.9
2018-May-17 07:21N 49°01' W 123°09'0 0.0
2018-May-16 16:52N 49°02' W 123°09'1 1.5
2018-May-16 16:23N 49°01' W 123°09'0 0.0
2018-May-16 15:59N 49°01' W 123°09'0 0.0
2018-May-16 15:29N 49°01' W 123°09'1 1.4
2018-May-16 15:00N 49°00' W 123°10'1 1.2
2018-May-16 14:26N 49°01' W 123°09'0 0.6
2018-May-16 13:50N 49°01' W 123°09'1 2.2
2018-May-16 13:30N 49°00' W 123°09'1 1.8
2018-May-16 12:59N 48°60' W 123°10'2 1.0
2018-May-16 11:03N 49°01' W 123°09'1 7.1
2018-May-16 10:56N 49°01' W 123°09'0 0.7
2018-May-16 10:15N 49°01' W 123°10'0 0.6
2018-May-16 10:00N 49°01' W 123°10'1 2.1
2018-May-16 09:29N 49°00' W 123°12'2 4.3
2018-May-16 08:58N 49°01' W 123°09'0 0.0
2018-May-16 08:28N 49°01' W 123°09'1 2.3
2018-May-16 07:58N 49°01' W 123°10'0 0.3
2018-May-16 07:26N 49°01' W 123°10'1 1.7
2018-May-16 06:46N 49°01' W 123°09'0 0.0
2018-May-16 05:40N 49°01' W 123°09'0 0.0
2018-May-16 05:28N 49°01' W 123°09'0 0.0
2018-May-16 04:46N 49°01' W 123°09'0 0.0
2018-May-16 04:22N 49°01' W 123°09'0 0.0
2018-May-16 03:58N 49°01' W 123°09'0 0.0
2018-May-16 03:28N 49°01' W 123°09'0 0.0
2018-May-16 02:46N 49°01' W 123°09'0 0.0
2018-May-16 02:28N 49°01' W 123°09'0 0.0
2018-May-16 01:58N 49°01' W 123°09'0 0.0
2018-May-16 01:16N 49°01' W 123°09'0 0.0
2018-May-16 00:58N 49°01' W 123°09'0 0.0
2018-May-16 00:28N 49°01' W 123°09'0 0.0
2018-May-15 21:58N 49°01' W 123°09'0 0.0
2018-May-15 18:19N 49°01' W 123°09'0 0.0
2018-May-15 17:52N 49°01' W 123°09'0 0.0
2018-May-15 17:22N 49°01' W 123°09'0 0.0
2018-May-15 16:55N 49°01' W 123°09'0 0.0
2018-May-15 16:28N 49°01' W 123°09'0 0.0
2018-May-15 15:55N 49°01' W 123°09'0 0.0
2018-May-15 15:28N 49°01' W 123°09'0 0.0
2018-May-15 14:58N 49°01' W 123°09'0 0.0
2018-May-15 13:16N 49°01' W 123°09'0 0.0
2018-May-15 12:52N 49°01' W 123°09'0 0.0
2018-May-15 12:22N 49°01' W 123°09'0 0.0
2018-May-15 11:58N 49°01' W 123°09'0 0.0
2018-May-15 11:22N 49°01' W 123°09'0 0.0
2018-May-15 10:58N 49°01' W 123°09'0 0.0
2018-May-15 10:25N 49°01' W 123°09'0 0.1
2018-May-15 09:47N 49°02' W 123°09'1 4.3
2018-May-15 09:30N 49°00' W 123°10'1 1.5
2018-May-15 08:59N 49°01' W 123°09'0 0.8
2018-May-15 08:28N 49°01' W 123°09'0 0.0
2018-May-15 07:49N 49°01' W 123°09'0 0.0
2018-May-15 07:22N 49°01' W 123°09'0 0.0
2018-May-15 06:43N 49°01' W 123°09'0 0.0
2018-May-15 06:25N 49°01' W 123°09'0 0.0
2018-May-15 02:46N 49°01' W 123°09'0 0.0
2018-May-15 02:28N 49°01' W 123°09'0 0.0
2018-May-15 01:52N 49°01' W 123°09'0 0.0
2018-May-15 00:40N 49°01' W 123°09'0 0.0
2018-May-15 00:10N 49°01' W 123°09'0 0.0
2018-May-14 23:52N 49°01' W 123°09'0 0.0
2018-May-14 22:34N 49°01' W 123°09'0 0.0
2018-May-14 22:28N 49°01' W 123°09'0 0.0
2018-May-14 21:58N 49°01' W 123°09'0 0.0
2018-May-14 21:28N 49°01' W 123°09'0 0.0
2018-May-14 20:55N 49°01' W 123°09'0 0.0
2018-May-14 20:25N 49°01' W 123°09'0 0.0
2018-May-14 19:55N 49°01' W 123°09'0 0.0
2018-May-14 19:19N 49°01' W 123°09'0 0.0
2018-May-14 18:55N 49°01' W 123°09'0 0.0
2018-May-14 18:10N 49°01' W 123°09'0 0.0
2018-May-14 17:55N 49°01' W 123°09'0 0.0
2018-May-14 17:28N 49°01' W 123°09'0 0.0
2018-May-14 16:04N 49°01' W 123°09'0 0.0
2018-May-14 15:01N 49°01' W 123°09'0 0.0
2018-May-14 13:55N 49°01' W 123°09'0 0.0
2018-May-14 13:25N 49°01' W 123°09'0 0.0
2018-May-14 12:55N 49°01' W 123°09'0 0.5
2018-May-14 12:29N 49°01' W 123°09'0 0.9
2018-May-14 12:00N 49°01' W 123°09'1 0.5
2018-May-14 09:27N 49°01' W 123°11'1 3.4
2018-May-14 09:01N 49°01' W 123°09'0 0.5
2018-May-14 08:28N 49°01' W 123°09'1 1.7
2018-May-14 07:52N 49°01' W 123°10'1 2.9
2018-May-14 07:28N 49°01' W 123°09'0 0.0
2018-May-14 06:58N 49°01' W 123°09'0 0.0
2018-May-14 06:25N 49°01' W 123°09'0 0.0
2018-May-14 05:58N 49°01' W 123°09'0 0.0
2018-May-14 05:25N 49°01' W 123°09'0 0.0
2018-May-14 04:58N 49°01' W 123°09'0 0.0
2018-May-14 04:25N 49°01' W 123°09'0 0.0
2018-May-14 03:55N 49°01' W 123°09'  

Dump ship's entire track history